Newcastle, Wyoming
Current Conditions -  °F | °C
As of 1:35 PM on Friday 28 Nov 2014 (Local Time) from KECS Reporting Station
Clear Clear  
Wind Chill: 54°   Ceiling: Unl
Heat Index: 54°   Visibility: 10mi
Dew Point: 25°   Wind: 0mph
Humidity: 33%   Direction: NA
Pressure: 29.67"   Gusts: NA
Location:  43.85°N, 104.2°W
Report Text: KECS 282035Z AUTO 00000KT 10SM CLR 12/M04 A2967 RMK AO2
Loading
Personal Weather Stations






























Interactive Weather Map New forecast layout! Learn more

10-Day Weather Forecast

Advertisements
Track Severe Weather on mobile